sensor_id;sensor_type;location;lat;lon;timestamp;pressure;altitude;pressure_sealevel;temperature;humidity
20023;BME280;10172;42.054;24.546;2024-03-29T00:01:15;97941.91;;;14.78;43.15
20023;BME280;10172;42.054;24.546;2024-03-29T00:03:41;97936.59;;;14.69;43.95
20023;BME280;10172;42.054;24.546;2024-03-29T00:06:07;97939.44;;;14.73;43.56
20023;BME280;10172;42.054;24.546;2024-03-29T00:08:32;97928.19;;;14.59;44.12
20023;BME280;10172;42.054;24.546;2024-03-29T00:10:58;97945.66;;;13.81;47.05
20023;BME280;10172;42.054;24.546;2024-03-29T00:13:23;97934.66;;;14.20;45.65
20023;BME280;10172;42.054;24.546;2024-03-29T00:15:49;97931.84;;;13.70;46.83
20023;BME280;10172;42.054;24.546;2024-03-29T00:18:14;97923.56;;;14.01;45.71
20023;BME280;10172;42.054;24.546;2024-03-29T00:20:39;97943.84;;;13.30;46.84
20023;BME280;10172;42.054;24.546;2024-03-29T00:23:05;97940.53;;;12.99;48.25
20023;BME280;10172;42.054;24.546;2024-03-29T00:25:30;97942.56;;;13.53;46.63
20023;BME280;10172;42.054;24.546;2024-03-29T00:27:56;97940.59;;;13.88;44.80
20023;BME280;10172;42.054;24.546;2024-03-29T00:30:21;97948.50;;;14.31;43.95
20023;BME280;10172;42.054;24.546;2024-03-29T00:32:47;97953.97;;;14.34;44.38
20023;BME280;10172;42.054;24.546;2024-03-29T00:35:12;97950.97;;;14.27;43.80
20023;BME280;10172;42.054;24.546;2024-03-29T00:37:39;97956.81;;;14.20;44.48
20023;BME280;10172;42.054;24.546;2024-03-29T00:40:05;97953.97;;;14.84;42.63
20023;BME280;10172;42.054;24.546;2024-03-29T00:42:30;97945.69;;;14.98;42.46
20023;BME280;10172;42.054;24.546;2024-03-29T00:44:56;97948.44;;;14.39;43.65
20023;BME280;10172;42.054;24.546;2024-03-29T00:47:21;97949.59;;;14.21;44.63
20023;BME280;10172;42.054;24.546;2024-03-29T00:49:47;97949.06;;;13.26;47.10
20023;BME280;10172;42.054;24.546;2024-03-29T00:52:12;97936.44;;;14.07;43.97
20023;BME280;10172;42.054;24.546;2024-03-29T00:54:37;97933.47;;;14.38;43.29
20023;BME280;10172;42.054;24.546;2024-03-29T00:57:03;97934.81;;;14.82;42.05
20023;BME280;10172;42.054;24.546;2024-03-29T00:59:28;97931.94;;;14.37;42.99
20023;BME280;10172;42.054;24.546;2024-03-29T01:01:54;97937.28;;;13.91;44.70
20023;BME280;10172;42.054;24.546;2024-03-29T01:04:20;97925.81;;;14.28;43.15
20023;BME280;10172;42.054;24.546;2024-03-29T01:06:45;97943.13;;;14.22;43.37
20023;BME280;10172;42.054;24.546;2024-03-29T01:09:11;97938.16;;;14.12;43.67
20023;BME280;10172;42.054;24.546;2024-03-29T01:11:37;97945.91;;;14.43;42.18
20023;BME280;10172;42.054;24.546;2024-03-29T01:14:03;97950.34;;;14.21;42.83
20023;BME280;10172;42.054;24.546;2024-03-29T01:16:29;97957.84;;;14.95;40.76
20023;BME280;10172;42.054;24.546;2024-03-29T01:18:57;97963.66;;;15.18;40.12
20023;BME280;10172;42.054;24.546;2024-03-29T01:21:22;97959.78;;;15.48;39.01
20023;BME280;10172;42.054;24.546;2024-03-29T01:23:48;97966.75;;;15.40;39.83
20023;BME280;10172;42.054;24.546;2024-03-29T01:26:14;97977.09;;;15.30;39.28
20023;BME280;10172;42.054;24.546;2024-03-29T01:28:42;97973.47;;;15.67;38.21
20023;BME280;10172;42.054;24.546;2024-03-29T01:31:08;97973.91;;;15.69;37.52
20023;BME280;10172;42.054;24.546;2024-03-29T01:33:33;97973.69;;;15.41;39.11
20023;BME280;10172;42.054;24.546;2024-03-29T01:36:03;97974.31;;;15.47;38.76
20023;BME280;10172;42.054;24.546;2024-03-29T01:38:28;97965.88;;;15.16;39.47
20023;BME280;10172;42.054;24.546;2024-03-29T01:40:54;97970.97;;;15.09;39.42
20023;BME280;10172;42.054;24.546;2024-03-29T01:43:19;97974.22;;;14.93;40.06
20023;BME280;10172;42.054;24.546;2024-03-29T01:45:47;97974.56;;;15.54;38.15
20023;BME280;10172;42.054;24.546;2024-03-29T01:48:13;97968.94;;;15.06;40.08
20023;BME280;10172;42.054;24.546;2024-03-29T01:50:38;97965.44;;;15.14;38.69
20023;BME280;10172;42.054;24.546;2024-03-29T01:53:05;97980.78;;;14.75;40.81
20023;BME280;10172;42.054;24.546;2024-03-29T01:55:33;97982.31;;;15.06;40.12
20023;BME280;10172;42.054;24.546;2024-03-29T01:57:58;97991.50;;;15.17;39.91
20023;BME280;10172;42.054;24.546;2024-03-29T02:00:25;97988.84;;;15.17;40.57
20023;BME280;10172;42.054;24.546;2024-03-29T02:02:52;97995.69;;;15.06;39.87
20023;BME280;10172;42.054;24.546;2024-03-29T02:05:18;97993.22;;;15.42;38.47
20023;BME280;10172;42.054;24.546;2024-03-29T02:07:44;97999.66;;;15.49;38.66
20023;BME280;10172;42.054;24.546;2024-03-29T02:10:12;98007.06;;;15.97;37.51
20023;BME280;10172;42.054;24.546;2024-03-29T02:12:39;98006.09;;;15.81;37.22
20023;BME280;10172;42.054;24.546;2024-03-29T02:15:04;98013.75;;;15.91;37.23
20023;BME280;10172;42.054;24.546;2024-03-29T02:17:31;98015.94;;;15.77;37.06
20023;BME280;10172;42.054;24.546;2024-03-29T02:19:57;98007.03;;;15.85;37.62
20023;BME280;10172;42.054;24.546;2024-03-29T02:22:24;98018.34;;;15.70;38.10
20023;BME280;10172;42.054;24.546;2024-03-29T02:24:51;98017.81;;;15.77;37.97
20023;BME280;10172;42.054;24.546;2024-03-29T02:27:17;98021.94;;;15.74;37.65
20023;BME280;10172;42.054;24.546;2024-03-29T02:29:42;98022.88;;;16.23;36.12
20023;BME280;10172;42.054;24.546;2024-03-29T02:32:08;98030.19;;;16.02;36.60
20023;BME280;10172;42.054;24.546;2024-03-29T02:34:33;98032.91;;;15.81;37.97
20023;BME280;10172;42.054;24.546;2024-03-29T02:36:58;98051.72;;;15.31;38.76
20023;BME280;10172;42.054;24.546;2024-03-29T02:39:24;98053.03;;;15.87;37.95
20023;BME280;10172;42.054;24.546;2024-03-29T02:41:50;98055.22;;;15.03;40.69
20023;BME280;10172;42.054;24.546;2024-03-29T02:44:16;98053.75;;;14.84;40.97
20023;BME280;10172;42.054;24.546;2024-03-29T02:46:42;98064.63;;;14.79;41.33
20023;BME280;10172;42.054;24.546;2024-03-29T02:49:08;98049.72;;;14.23;43.16
20023;BME280;10172;42.054;24.546;2024-03-29T02:51:34;98068.25;;;14.29;42.56
20023;BME280;10172;42.054;24.546;2024-03-29T02:54:00;98072.22;;;14.14;42.95
20023;BME280;10172;42.054;24.546;2024-03-29T02:56:25;98063.63;;;13.74;43.80
20023;BME280;10172;42.054;24.546;2024-03-29T02:58:52;98065.66;;;14.58;40.80
20023;BME280;10172;42.054;24.546;2024-03-29T03:01:17;98077.56;;;15.07;39.76
20023;BME280;10172;42.054;24.546;2024-03-29T03:03:43;98087.38;;;15.44;39.15
20023;BME280;10172;42.054;24.546;2024-03-29T03:06:08;98091.41;;;15.29;38.67
20023;BME280;10172;42.054;24.546;2024-03-29T03:08:34;98100.75;;;15.23;38.03
20023;BME280;10172;42.054;24.546;2024-03-29T03:11:17;98090.50;;;15.75;36.07
20023;BME280;10172;42.054;24.546;2024-03-29T03:13:43;98093.44;;;15.62;37.61
20023;BME280;10172;42.054;24.546;2024-03-29T03:16:08;98113.56;;;15.47;38.12
20023;BME280;10172;42.054;24.546;2024-03-29T03:18:34;98110.78;;;15.97;35.83
20023;BME280;10172;42.054;24.546;2024-03-29T03:20:59;98116.53;;;16.40;36.22
20023;BME280;10172;42.054;24.546;2024-03-29T03:23:25;98122.13;;;16.47;36.41
20023;BME280;10172;42.054;24.546;2024-03-29T03:26:01;98116.47;;;15.95;37.28
20023;BME280;10172;42.054;24.546;2024-03-29T03:28:29;98132.09;;;15.23;39.24
20023;BME280;10172;42.054;24.546;2024-03-29T03:30:54;98141.41;;;15.17;39.43
20023;BME280;10172;42.054;24.546;2024-03-29T03:33:20;98150.47;;;15.33;38.86
20023;BME280;10172;42.054;24.546;2024-03-29T03:35:46;98161.28;;;14.61;39.97
20023;BME280;10172;42.054;24.546;2024-03-29T03:38:12;98172.94;;;14.56;40.84
20023;BME280;10172;42.054;24.546;2024-03-29T03:40:38;98177.38;;;14.44;41.31
20023;BME280;10172;42.054;24.546;2024-03-29T03:43:05;98173.44;;;14.15;41.17
20023;BME280;10172;42.054;24.546;2024-03-29T03:45:49;98183.41;;;13.41;43.67
20023;BME280;10172;42.054;24.546;2024-03-29T03:48:14;98199.66;;;13.71;42.64
20023;BME280;10172;42.054;24.546;2024-03-29T03:50:40;98204.19;;;12.83;45.71
20023;BME280;10172;42.054;24.546;2024-03-29T03:53:07;98205.00;;;13.14;44.52
20023;BME280;10172;42.054;24.546;2024-03-29T03:55:38;98213.22;;;12.43;47.14
20023;BME280;10172;42.054;24.546;2024-03-29T03:58:03;98214.16;;;12.69;46.47
20023;BME280;10172;42.054;24.546;2024-03-29T04:00:29;98211.81;;;13.37;43.09
20023;BME280;10172;42.054;24.546;2024-03-29T04:02:54;98223.25;;;14.03;41.00
20023;BME280;10172;42.054;24.546;2024-03-29T04:05:22;98227.06;;;14.19;41.25
20023;BME280;10172;42.054;24.546;2024-03-29T04:07:47;98230.69;;;14.32;40.18
20023;BME280;10172;42.054;24.546;2024-03-29T04:10:13;98239.59;;;14.10;40.72
20023;BME280;10172;42.054;24.546;2024-03-29T04:12:39;98243.03;;;13.93;41.37
20023;BME280;10172;42.054;24.546;2024-03-29T04:15:05;98247.31;;;13.38;43.80
20023;BME280;10172;42.054;24.546;2024-03-29T04:17:31;98248.13;;;12.85;45.17
20023;BME280;10172;42.054;24.546;2024-03-29T04:20:00;98245.53;;;12.50;46.47
20023;BME280;10172;42.054;24.546;2024-03-29T04:22:29;98253.72;;;13.28;43.61
20023;BME280;10172;42.054;24.546;2024-03-29T04:24:54;98251.94;;;12.93;45.22
20023;BME280;10172;42.054;24.546;2024-03-29T04:27:20;98253.03;;;13.14;44.25
20023;BME280;10172;42.054;24.546;2024-03-29T04:29:45;98238.31;;;12.72;44.87
20023;BME280;10172;42.054;24.546;2024-03-29T04:32:11;98238.22;;;13.08;44.80
20023;BME280;10172;42.054;24.546;2024-03-29T04:34:36;98232.81;;;12.69;47.53
20023;BME280;10172;42.054;24.546;2024-03-29T04:37:02;98240.38;;;12.75;46.98
20023;BME280;10172;42.054;24.546;2024-03-29T04:39:27;98236.13;;;13.05;45.74
20023;BME280;10172;42.054;24.546;2024-03-29T04:41:53;98234.56;;;12.51;47.25
20023;BME280;10172;42.054;24.546;2024-03-29T04:44:26;98231.81;;;12.87;46.35
20023;BME280;10172;42.054;24.546;2024-03-29T04:46:51;98233.53;;;12.16;48.45
20023;BME280;10172;42.054;24.546;2024-03-29T04:49:22;98237.06;;;12.26;48.35
20023;BME280;10172;42.054;24.546;2024-03-29T04:51:54;98224.03;;;12.68;46.52
20023;BME280;10172;42.054;24.546;2024-03-29T04:54:19;98246.84;;;12.39;47.65
20023;BME280;10172;42.054;24.546;2024-03-29T04:56:45;98245.66;;;13.20;45.31
20023;BME280;10172;42.054;24.546;2024-03-29T04:59:10;98250.25;;;13.28;44.71
20023;BME280;10172;42.054;24.546;2024-03-29T05:01:36;98246.06;;;13.44;43.25
20023;BME280;10172;42.054;24.546;2024-03-29T05:04:01;98249.19;;;14.11;41.32
20023;BME280;10172;42.054;24.546;2024-03-29T05:06:27;98250.91;;;13.90;42.59
20023;BME280;10172;42.054;24.546;2024-03-29T05:08:53;98255.78;;;12.78;46.33
20023;BME280;10172;42.054;24.546;2024-03-29T05:11:19;98263.91;;;12.15;48.71
20023;BME280;10172;42.054;24.546;2024-03-29T05:13:44;98255.72;;;12.48;48.54
20023;BME280;10172;42.054;24.546;2024-03-29T05:16:10;98243.78;;;13.20;44.96
20023;BME280;10172;42.054;24.546;2024-03-29T05:18:35;98255.53;;;13.19;45.03
20023;BME280;10172;42.054;24.546;2024-03-29T05:21:01;98259.44;;;12.91;46.67
20023;BME280;10172;42.054;24.546;2024-03-29T05:23:26;98262.50;;;13.77;43.74
20023;BME280;10172;42.054;24.546;2024-03-29T05:25:52;98256.06;;;13.78;44.03
20023;BME280;10172;42.054;24.546;2024-03-29T05:28:17;98274.91;;;13.73;44.19
20023;BME280;10172;42.054;24.546;2024-03-29T05:30:43;98267.75;;;14.16;43.05
20023;BME280;10172;42.054;24.546;2024-03-29T05:33:09;98270.09;;;14.00;43.35
20023;BME280;10172;42.054;24.546;2024-03-29T05:35:34;98267.59;;;14.30;42.89
20023;BME280;10172;42.054;24.546;2024-03-29T05:38:00;98260.59;;;15.14;40.77
20023;BME280;10172;42.054;24.546;2024-03-29T05:40:25;98276.72;;;14.80;41.26
20023;BME280;10172;42.054;24.546;2024-03-29T05:42:53;98279.09;;;14.81;41.47
20023;BME280;10172;42.054;24.546;2024-03-29T05:45:28;98299.69;;;14.21;43.74
20023;BME280;10172;42.054;24.546;2024-03-29T05:47:54;98296.00;;;15.20;42.16
20023;BME280;10172;42.054;24.546;2024-03-29T05:50:21;98290.28;;;15.76;40.31
20023;BME280;10172;42.054;24.546;2024-03-29T05:52:46;98297.16;;;15.86;40.59
20023;BME280;10172;42.054;24.546;2024-03-29T05:55:12;98293.94;;;16.01;38.70
20023;BME280;10172;42.054;24.546;2024-03-29T05:57:38;98297.38;;;16.72;37.84
20023;BME280;10172;42.054;24.546;2024-03-29T06:00:07;98306.13;;;17.02;37.09
20023;BME280;10172;42.054;24.546;2024-03-29T06:02:33;98315.06;;;17.06;37.80
20023;BME280;10172;42.054;24.546;2024-03-29T06:04:59;98310.00;;;17.37;35.80
20023;BME280;10172;42.054;24.546;2024-03-29T06:07:24;98315.91;;;17.75;34.44
20023;BME280;10172;42.054;24.546;2024-03-29T06:09:50;98314.19;;;18.07;33.60
20023;BME280;10172;42.054;24.546;2024-03-29T06:12:15;98334.16;;;18.06;34.25
20023;BME280;10172;42.054;24.546;2024-03-29T06:14:41;98328.47;;;18.59;34.53
20023;BME280;10172;42.054;24.546;2024-03-29T06:17:25;98338.34;;;19.23;32.49
20023;BME280;10172;42.054;24.546;2024-03-29T06:19:54;98341.88;;;19.39;33.56
20023;BME280;10172;42.054;24.546;2024-03-29T06:22:24;98338.44;;;20.20;31.73
20023;BME280;10172;42.054;24.546;2024-03-29T06:24:52;98338.88;;;20.06;30.92
20023;BME280;10172;42.054;24.546;2024-03-29T06:27:18;98331.63;;;19.91;29.50
20023;BME280;10172;42.054;24.546;2024-03-29T06:29:45;98346.66;;;20.23;28.77
20023;BME280;10172;42.054;24.546;2024-03-29T06:32:11;98351.34;;;20.27;28.69
20023;BME280;10172;42.054;24.546;2024-03-29T06:34:36;98352.50;;;20.45;26.99
20023;BME280;10172;42.054;24.546;2024-03-29T06:37:02;98347.38;;;20.93;27.28
20023;BME280;10172;42.054;24.546;2024-03-29T06:39:28;98347.91;;;21.41;25.57
20023;BME280;10172;42.054;24.546;2024-03-29T06:41:53;98351.16;;;21.27;26.70
20023;BME280;10172;42.054;24.546;2024-03-29T06:44:19;98355.25;;;21.40;26.93
20023;BME280;10172;42.054;24.546;2024-03-29T06:46:46;98361.22;;;21.72;24.98
20023;BME280;10172;42.054;24.546;2024-03-29T06:49:11;98364.75;;;21.53;24.87
20023;BME280;10172;42.054;24.546;2024-03-29T06:51:39;98367.47;;;21.76;26.55
20023;BME280;10172;42.054;24.546;2024-03-29T06:54:05;98366.25;;;22.19;25.44
20023;BME280;10172;42.054;24.546;2024-03-29T06:56:31;98357.22;;;22.38;25.08
20023;BME280;10172;42.054;24.546;2024-03-29T06:58:56;98362.22;;;20.84;25.15
20023;BME280;10172;42.054;24.546;2024-03-29T07:01:21;98367.72;;;21.07;25.75
20023;BME280;10172;42.054;24.546;2024-03-29T07:03:47;98370.13;;;21.31;25.51
20023;BME280;10172;42.054;24.546;2024-03-29T07:06:12;98386.00;;;21.97;24.17
20023;BME280;10172;42.054;24.546;2024-03-29T07:08:38;98384.28;;;21.24;24.65
20023;BME280;10172;42.054;24.546;2024-03-29T07:11:04;98378.31;;;21.57;25.53
20023;BME280;10172;42.054;24.546;2024-03-29T07:13:30;98375.75;;;21.41;25.49
20023;BME280;10172;42.054;24.546;2024-03-29T07:15:59;98385.91;;;20.90;26.02
20023;BME280;10172;42.054;24.546;2024-03-29T07:18:25;98385.13;;;21.28;25.61
20023;BME280;10172;42.054;24.546;2024-03-29T07:20:50;98388.84;;;21.01;26.42
20023;BME280;10172;42.054;24.546;2024-03-29T07:23:16;98398.03;;;20.81;25.89
20023;BME280;10172;42.054;24.546;2024-03-29T07:25:57;98395.81;;;21.21;27.63
20023;BME280;10172;42.054;24.546;2024-03-29T07:28:22;98399.06;;;21.91;25.53
20023;BME280;10172;42.054;24.546;2024-03-29T07:30:48;98393.13;;;22.08;24.78
20023;BME280;10172;42.054;24.546;2024-03-29T07:33:15;98388.91;;;22.11;25.02
20023;BME280;10172;42.054;24.546;2024-03-29T07:35:41;98390.94;;;22.40;24.52
20023;BME280;10172;42.054;24.546;2024-03-29T07:38:07;98397.03;;;22.34;24.72
20023;BME280;10172;42.054;24.546;2024-03-29T07:40:32;98397.69;;;22.27;25.21
20023;BME280;10172;42.054;24.546;2024-03-29T07:42:58;98402.66;;;21.57;25.62
20023;BME280;10172;42.054;24.546;2024-03-29T07:45:25;98403.03;;;22.23;24.88
20023;BME280;10172;42.054;24.546;2024-03-29T07:47:50;98402.13;;;21.71;25.63
20023;BME280;10172;42.054;24.546;2024-03-29T07:50:18;98408.53;;;21.40;25.20
20023;BME280;10172;42.054;24.546;2024-03-29T07:52:47;98412.72;;;21.37;25.12
20023;BME280;10172;42.054;24.546;2024-03-29T07:55:13;98405.59;;;21.48;24.83
20023;BME280;10172;42.054;24.546;2024-03-29T07:57:38;98401.59;;;21.62;25.26
20023;BME280;10172;42.054;24.546;2024-03-29T08:00:04;98402.78;;;21.41;25.31
20023;BME280;10172;42.054;24.546;2024-03-29T08:02:32;98413.94;;;22.04;25.09
20023;BME280;10172;42.054;24.546;2024-03-29T08:04:57;98401.31;;;22.12;24.87
20023;BME280;10172;42.054;24.546;2024-03-29T08:07:23;98411.25;;;22.27;24.73
20023;BME280;10172;42.054;24.546;2024-03-29T08:09:49;98410.00;;;21.56;25.23
20023;BME280;10172;42.054;24.546;2024-03-29T08:12:15;98412.94;;;21.48;25.56
20023;BME280;10172;42.054;24.546;2024-03-29T08:14:41;98413.34;;;21.92;24.98
20023;BME280;10172;42.054;24.546;2024-03-29T08:17:06;98408.88;;;22.25;24.48
20023;BME280;10172;42.054;24.546;2024-03-29T08:19:39;98414.31;;;22.03;24.86
20023;BME280;10172;42.054;24.546;2024-03-29T08:22:05;98414.22;;;21.96;25.15
20023;BME280;10172;42.054;24.546;2024-03-29T08:24:30;98415.97;;;22.60;23.78
20023;BME280;10172;42.054;24.546;2024-03-29T08:26:56;98416.91;;;22.67;23.38
20023;BME280;10172;42.054;24.546;2024-03-29T08:29:21;98409.25;;;22.50;23.86
20023;BME280;10172;42.054;24.546;2024-03-29T08:31:47;98405.19;;;22.89;24.19
20023;BME280;10172;42.054;24.546;2024-03-29T08:34:12;98402.94;;;22.43;24.11
20023;BME280;10172;42.054;24.546;2024-03-29T08:36:39;98410.16;;;22.84;23.51
20023;BME280;10172;42.054;24.546;2024-03-29T08:39:05;98410.28;;;23.28;23.20
20023;BME280;10172;42.054;24.546;2024-03-29T08:41:30;98414.88;;;22.90;23.63
20023;BME280;10172;42.054;24.546;2024-03-29T08:43:56;98404.63;;;23.07;23.53
20023;BME280;10172;42.054;24.546;2024-03-29T08:46:21;98409.97;;;23.00;23.13
20023;BME280;10172;42.054;24.546;2024-03-29T08:48:47;98401.19;;;23.10;23.20
20023;BME280;10172;42.054;24.546;2024-03-29T08:51:13;98403.47;;;23.37;23.04
20023;BME280;10172;42.054;24.546;2024-03-29T08:53:39;98397.91;;;23.64;22.38
20023;BME280;10172;42.054;24.546;2024-03-29T08:56:05;98405.97;;;23.53;22.86
20023;BME280;10172;42.054;24.546;2024-03-29T08:58:31;98414.84;;;23.20;22.88
20023;BME280;10172;42.054;24.546;2024-03-29T09:00:56;98410.28;;;22.95;23.08
20023;BME280;10172;42.054;24.546;2024-03-29T09:03:22;98410.88;;;23.44;23.25
20023;BME280;10172;42.054;24.546;2024-03-29T09:05:48;98415.22;;;24.33;21.84
20023;BME280;10172;42.054;24.546;2024-03-29T09:08:14;98406.94;;;24.73;21.10
20023;BME280;10172;42.054;24.546;2024-03-29T09:10:40;98400.25;;;24.05;21.36
20023;BME280;10172;42.054;24.546;2024-03-29T09:13:06;98394.81;;;23.28;22.79
20023;BME280;10172;42.054;24.546;2024-03-29T09:15:32;98392.22;;;23.72;21.88
20023;BME280;10172;42.054;24.546;2024-03-29T09:17:58;98394.56;;;24.17;21.58
20023;BME280;10172;42.054;24.546;2024-03-29T09:20:28;98380.75;;;24.40;21.63
20023;BME280;10172;42.054;24.546;2024-03-29T09:22:53;98384.75;;;24.60;21.44
20023;BME280;10172;42.054;24.546;2024-03-29T09:25:18;98389.75;;;24.00;22.66
20023;BME280;10172;42.054;24.546;2024-03-29T09:27:47;98383.47;;;24.40;21.28
20023;BME280;10172;42.054;24.546;2024-03-29T09:30:14;98377.28;;;24.47;20.76
20023;BME280;10172;42.054;24.546;2024-03-29T09:32:40;98368.81;;;24.55;21.28
20023;BME280;10172;42.054;24.546;2024-03-29T09:35:06;98369.22;;;24.57;21.10
20023;BME280;10172;42.054;24.546;2024-03-29T09:37:32;98369.03;;;25.01;20.53
20023;BME280;10172;42.054;24.546;2024-03-29T09:40:02;98357.50;;;25.32;20.41
20023;BME280;10172;42.054;24.546;2024-03-29T09:42:29;98350.09;;;25.19;21.38
20023;BME280;10172;42.054;24.546;2024-03-29T09:44:58;98354.88;;;26.03;19.38
20023;BME280;10172;42.054;24.546;2024-03-29T09:47:25;98337.38;;;26.11;19.81
20023;BME280;10172;42.054;24.546;2024-03-29T09:49:53;98342.03;;;25.72;19.64
20023;BME280;10172;42.054;24.546;2024-03-29T09:52:20;98329.06;;;25.09;20.82
20023;BME280;10172;42.054;24.546;2024-03-29T09:54:46;98334.09;;;25.03;21.02
20023;BME280;10172;42.054;24.546;2024-03-29T09:57:12;98331.88;;;25.40;19.15
20023;BME280;10172;42.054;24.546;2024-03-29T09:59:38;98337.88;;;24.77;20.58
20023;BME280;10172;42.054;24.546;2024-03-29T10:02:19;98335.31;;;25.23;20.27
20023;BME280;10172;42.054;24.546;2024-03-29T10:04:46;98329.19;;;26.04;18.77
20023;BME280;10172;42.054;24.546;2024-03-29T10:07:14;98310.91;;;26.08;19.67
20023;BME280;10172;42.054;24.546;2024-03-29T10:09:42;98318.25;;;25.30;19.60
20023;BME280;10172;42.054;24.546;2024-03-29T10:12:08;98316.38;;;25.73;20.08
20023;BME280;10172;42.054;24.546;2024-03-29T10:14:47;98315.63;;;25.79;19.59
20023;BME280;10172;42.054;24.546;2024-03-29T10:17:20;98305.00;;;26.48;17.97
20023;BME280;10172;42.054;24.546;2024-03-29T10:19:46;98306.22;;;26.33;18.17
20023;BME280;10172;42.054;24.546;2024-03-29T10:22:12;98309.22;;;26.74;17.61
20023;BME280;10172;42.054;24.546;2024-03-29T10:24:38;98292.16;;;27.32;18.45
20023;BME280;10172;42.054;24.546;2024-03-29T10:27:04;98283.41;;;27.58;18.33
20023;BME280;10172;42.054;24.546;2024-03-29T10:29:30;98276.28;;;28.15;17.85
20023;BME280;10172;42.054;24.546;2024-03-29T10:31:56;98274.34;;;27.17;18.25
20023;BME280;10172;42.054;24.546;2024-03-29T10:34:22;98270.66;;;26.75;18.38
20023;BME280;10172;42.054;24.546;2024-03-29T10:36:48;98265.31;;;26.44;18.42
20023;BME280;10172;42.054;24.546;2024-03-29T10:39:16;98262.50;;;26.68;18.64
20023;BME280;10172;42.054;24.546;2024-03-29T10:41:43;98253.13;;;26.73;18.79
20023;BME280;10172;42.054;24.546;2024-03-29T10:44:09;98238.88;;;27.17;18.29
20023;BME280;10172;42.054;24.546;2024-03-29T10:46:37;98235.28;;;27.78;17.96
20023;BME280;10172;42.054;24.546;2024-03-29T10:49:06;98247.38;;;27.77;17.60
20023;BME280;10172;42.054;24.546;2024-03-29T10:51:33;98233.91;;;27.56;17.38
20023;BME280;10172;42.054;24.546;2024-03-29T10:53:59;98225.84;;;27.42;18.16
20023;BME280;10172;42.054;24.546;2024-03-29T10:56:26;98224.94;;;27.01;18.59
20023;BME280;10172;42.054;24.546;2024-03-29T10:58:56;98239.78;;;26.96;17.62
20023;BME280;10172;42.054;24.546;2024-03-29T11:01:26;98235.38;;;26.30;18.52
20023;BME280;10172;42.054;24.546;2024-03-29T11:03:54;98231.38;;;26.59;19.33
20023;BME280;10172;42.054;24.546;2024-03-29T11:06:26;98224.19;;;27.51;17.89
20023;BME280;10172;42.054;24.546;2024-03-29T11:08:55;98209.75;;;28.63;17.90
20023;BME280;10172;42.054;24.546;2024-03-29T11:11:22;98202.94;;;28.78;16.86
20023;BME280;10172;42.054;24.546;2024-03-29T11:14:19;98199.69;;;28.26;17.86
20023;BME280;10172;42.054;24.546;2024-03-29T11:16:42;98197.34;;;26.05;19.01
20023;BME280;10172;42.054;24.546;2024-03-29T11:19:12;98186.41;;;27.87;17.11
20023;BME280;10172;42.054;24.546;2024-03-29T11:21:38;98178.66;;;27.82;18.36
20023;BME280;10172;42.054;24.546;2024-03-29T11:24:04;98176.56;;;27.97;16.57
20023;BME280;10172;42.054;24.546;2024-03-29T11:26:30;98175.44;;;26.40;18.15
20023;BME280;10172;42.054;24.546;2024-03-29T11:28:55;98180.44;;;26.52;18.37
20023;BME280;10172;42.054;24.546;2024-03-29T11:31:24;98175.53;;;26.92;18.68
20023;BME280;10172;42.054;24.546;2024-03-29T11:33:50;98180.09;;;27.09;18.31
20023;BME280;10172;42.054;24.546;2024-03-29T11:38:50;98165.38;;;27.43;17.27
20023;BME280;10172;42.054;24.546;2024-03-29T11:41:26;98167.72;;;27.45;18.02
20023;BME280;10172;42.054;24.546;2024-03-29T11:43:55;98173.34;;;28.09;17.59
20023;BME280;10172;42.054;24.546;2024-03-29T11:46:22;98167.81;;;28.12;16.96
20023;BME280;10172;42.054;24.546;2024-03-29T11:48:48;98171.75;;;28.42;17.29
20023;BME280;10172;42.054;24.546;2024-03-29T11:51:21;98166.44;;;28.58;16.25
20023;BME280;10172;42.054;24.546;2024-03-29T11:53:49;98167.53;;;28.34;16.68
20023;BME280;10172;42.054;24.546;2024-03-29T11:56:19;98162.94;;;28.88;15.99
20023;BME280;10172;42.054;24.546;2024-03-29T11:58:45;98167.69;;;28.83;16.76
20023;BME280;10172;42.054;24.546;2024-03-29T12:01:11;98162.53;;;28.59;16.82
20023;BME280;10172;42.054;24.546;2024-03-29T12:03:40;98166.81;;;28.30;17.56
20023;BME280;10172;42.054;24.546;2024-03-29T12:06:06;98162.41;;;28.09;17.82
20023;BME280;10172;42.054;24.546;2024-03-29T12:08:33;98171.41;;;28.36;17.53
20023;BME280;10172;42.054;24.546;2024-03-29T12:11:01;98163.16;;;28.73;17.41
20023;BME280;10172;42.054;24.546;2024-03-29T12:13:27;98160.00;;;28.98;17.54
20023;BME280;10172;42.054;24.546;2024-03-29T12:15:54;98154.97;;;28.70;17.23
20023;BME280;10172;42.054;24.546;2024-03-29T12:18:20;98159.63;;;28.43;17.46
20023;BME280;10172;42.054;24.546;2024-03-29T12:20:48;98147.72;;;29.10;17.03
20023;BME280;10172;42.054;24.546;2024-03-29T12:23:16;98146.38;;;28.41;17.67
20023;BME280;10172;42.054;24.546;2024-03-29T12:25:41;98143.31;;;28.66;17.58
20023;BME280;10172;42.054;24.546;2024-03-29T12:28:08;98142.78;;;28.74;17.55
20023;BME280;10172;42.054;24.546;2024-03-29T12:30:34;98137.28;;;28.78;16.55
20023;BME280;10172;42.054;24.546;2024-03-29T12:35:32;98139.72;;;28.72;17.65
20023;BME280;10172;42.054;24.546;2024-03-29T12:37:59;98133.63;;;28.58;17.91
20023;BME280;10172;42.054;24.546;2024-03-29T12:40:26;98136.72;;;28.63;17.55
20023;BME280;10172;42.054;24.546;2024-03-29T12:42:52;98133.81;;;28.47;17.74
20023;BME280;10172;42.054;24.546;2024-03-29T12:45:18;98134.81;;;28.30;17.87
20023;BME280;10172;42.054;24.546;2024-03-29T12:47:47;98130.13;;;28.31;17.83
20023;BME280;10172;42.054;24.546;2024-03-29T12:50:20;98122.50;;;28.45;17.96
20023;BME280;10172;42.054;24.546;2024-03-29T12:52:49;98118.16;;;28.78;17.25